This is the latest recevied weather packets stored in our database for station/object KC1OEK-13. If no packets are shown the sender has not sent any weather packets the latest 10 day(s).
| Time | Temp. | Humidity | Pressure | Rain* | Wind** | Luminosity | Snow |
|---|---|---|---|---|---|---|---|
| 1788100188 | 25° C | 62% | 1023.1 hPa | 0 mm | - | 487 W/m² | - |
| 1788099884 | 25° C | 58% | 1023.2 hPa | 0 mm | - | 567 W/m² | - |
| 1788099578 | 23.89° C | 66% | 1023.2 hPa | 0 mm | - | 526 W/m² | - |
| 1788099274 | 23.89° C | 68% | 1023.4 hPa | 0 mm | - | 517 W/m² | - |
| 1788098969 | 25° C | 68% | 1023.4 hPa | 0 mm | - | 475 W/m² | - |
| 1788098664 | 23.33° C | 69% | 1023.4 hPa | 0 mm | - | 441 W/m² | - |
| 1788098363 | 23.33° C | 70% | 1023.4 hPa | 0 mm | - | 311 W/m² | - |
| 1788098059 | 22.78° C | 70% | 1023.5 hPa | 0 mm | - | 404 W/m² | - |
| 1788097754 | 22.22° C | 76% | 1023.6 hPa | 0 mm | - | 482 W/m² | - |
| 1788097450 | 21.67° C | 78% | 1023.6 hPa | 0 mm | - | 430 W/m² | - |
| 1788097145 | 21.67° C | 78% | 1023.6 hPa | 0 mm | - | 417 W/m² | - |
| 1788096841 | 21.11° C | 78% | 1023.6 hPa | 0 mm | - | 405 W/m² | - |
| 1788096535 | 21.11° C | 76% | 1023.9 hPa | 0 mm | - | 375 W/m² | - |
| 1788096232 | 21.67° C | 76% | 1023.9 hPa | 0 mm | - | 377 W/m² | - |
| 1788095931 | 20.56° C | 79% | 1023.9 hPa | 0 mm | - | 361 W/m² | - |
| 1788095631 | 18.89° C | 85% | 1024.1 hPa | 0 mm | - | 332 W/m² | - |
| 1788095325 | 18.33° C | 86% | 1024.2 hPa | 0 mm | - | 182 W/m² | - |
| 1788095021 | 17.78° C | 87% | 1024.2 hPa | 0 mm | - | 137 W/m² | - |
| 1788094720 | 18.33° C | 87% | 1024.3 hPa | 0 mm | - | 113 W/m² | - |
| 1788094416 | 18.89° C | 84% | 1024.1 hPa | 0 mm | - | 147 W/m² | - |
| 1788094113 | 18.33° C | 85% | 1024.5 hPa | 0 mm | - | 290 W/m² | - |
| 1788093808 | 18.33° C | 84% | 1024.3 hPa | 0 mm | - | 303 W/m² | - |
| 1788093505 | 17.22° C | 87% | 1024.4 hPa | 0 mm | - | 306 W/m² | - |
| 1788093201 | 17.22° C | 89% | 1024.4 hPa | 0 mm | - | 269 W/m² | - |
| 1788092899 | 16.11° C | 95% | 1024.4 hPa | 0 mm | - | 258 W/m² | - |
* Rain latest hour (hover to see other rain measurements)
** Current wind speed in m/s (hover to see current wind gust speed)